createdAt,value
2023-04-21T00:00:54.769Z,3.73
2023-04-21T00:03:44.177Z,3.27
2023-04-21T00:06:33.125Z,3.40
2023-04-21T00:09:21.718Z,3.80
2023-04-21T00:12:10.318Z,4.20
2023-04-21T00:15:00.195Z,3.80
2023-04-21T00:17:48.610Z,4.10
2023-04-21T00:20:37.046Z,4.30
2023-04-21T00:23:25.372Z,3.80
2023-04-21T00:26:13.815Z,4.20
2023-04-21T00:29:05.291Z,4.00
2023-04-21T00:31:55.088Z,4.10
2023-04-21T00:34:43.555Z,3.80
2023-04-21T00:37:33.972Z,4.40
2023-04-21T00:40:22.556Z,4.23
2023-04-21T00:43:10.970Z,4.50
2023-04-21T00:45:59.275Z,4.00
2023-04-21T00:48:48.957Z,3.53
2023-04-21T00:51:38.448Z,3.70
2023-04-21T00:54:27.025Z,3.93
2023-04-21T00:57:15.472Z,3.90
2023-04-21T01:00:05.798Z,4.53
2023-04-21T01:02:54.284Z,4.00
2023-04-21T01:05:44.243Z,3.67
2023-04-21T01:08:33.494Z,4.70
2023-04-21T01:11:21.885Z,4.63
2023-04-21T01:14:10.238Z,4.00
2023-04-21T01:16:59.513Z,4.10
2023-04-21T01:19:47.931Z,4.03
2023-04-21T01:22:38.548Z,3.77
2023-04-21T01:25:28.590Z,3.57
2023-04-21T01:28:22.854Z,3.90
2023-04-21T01:31:11.436Z,3.20
2023-04-21T01:34:04.661Z,4.43
2023-04-21T01:36:53.036Z,3.47
2023-04-21T01:39:44.077Z,4.23
2023-04-21T01:42:34.209Z,3.97
2023-04-21T01:45:22.885Z,4.17
2023-04-21T01:48:11.338Z,4.23
2023-04-21T01:51:01.301Z,4.00
2023-04-21T01:53:49.777Z,4.33
2023-04-21T01:56:40.161Z,3.80
2023-04-21T01:59:28.584Z,3.50
2023-04-21T02:02:16.987Z,4.20
2023-04-21T02:05:06.108Z,4.33
2023-04-21T02:07:54.863Z,3.43
2023-04-21T02:10:44.144Z,3.40
2023-04-21T02:13:35.914Z,3.40
2023-04-21T02:16:26.303Z,3.90
2023-04-21T02:19:14.837Z,4.30
2023-04-21T02:22:04.084Z,3.77
2023-04-21T02:24:52.777Z,3.60
2023-04-21T02:27:41.195Z,4.20
2023-04-21T02:30:31.010Z,3.80
2023-04-21T02:33:19.655Z,3.73
2023-04-21T02:36:10.175Z,4.37
2023-04-21T02:38:58.512Z,3.23
2023-04-21T02:41:46.942Z,4.50
2023-04-21T02:44:35.296Z,4.47
2023-04-21T02:47:25.055Z,4.10
2023-04-21T02:50:14.797Z,3.50
2023-04-21T02:53:03.367Z,3.97
2023-04-21T02:55:51.729Z,4.40
2023-04-21T02:58:40.676Z,4.00
2023-04-21T03:01:29.068Z,3.53
2023-04-21T03:04:19.819Z,3.63
2023-04-21T03:07:12.991Z,3.73
2023-04-21T03:10:01.488Z,3.80
2023-04-21T03:12:51.335Z,3.40
2023-04-21T03:15:39.709Z,3.70
2023-04-21T03:18:28.271Z,4.40
2023-04-21T03:21:18.060Z,4.07
2023-04-21T03:24:07.512Z,4.00
2023-04-21T03:26:57.053Z,3.93
2023-04-21T03:29:45.569Z,3.30
2023-04-21T03:32:34.090Z,4.00
2023-04-21T03:35:22.570Z,3.97
2023-04-21T03:38:12.352Z,4.10
2023-04-21T03:41:00.881Z,4.43
2023-04-21T03:44:14.598Z,3.10
2023-04-21T03:47:03.768Z,3.90
2023-04-21T03:49:52.170Z,3.63
2023-04-21T03:52:41.021Z,3.37
2023-04-21T03:55:30.775Z,3.50
2023-04-21T03:58:19.453Z,4.27
2023-04-21T04:01:08.036Z,3.57
2023-04-21T04:03:56.776Z,3.87
2023-04-21T04:06:45.388Z,3.43
2023-04-21T04:09:33.849Z,4.03
2023-04-21T04:12:23.626Z,4.10
2023-04-21T04:15:12.379Z,3.63
2023-04-21T04:18:01.736Z,3.67
2023-04-21T04:20:50.287Z,3.70
2023-04-21T04:23:38.967Z,4.23
2023-04-21T04:26:27.499Z,3.57
2023-04-21T04:29:18.004Z,4.37
2023-04-21T04:32:06.732Z,4.80
2023-04-21T04:34:55.868Z,3.97
2023-04-21T04:37:45.578Z,4.33
2023-04-21T04:40:34.056Z,4.13
2023-04-21T04:43:22.629Z,3.30
2023-04-21T04:46:13.200Z,4.17
2023-04-21T04:49:01.906Z,4.20
2023-04-21T04:51:50.367Z,4.93
2023-04-21T04:54:38.786Z,4.00
2023-04-21T04:57:27.184Z,3.67
2023-04-21T05:00:16.109Z,4.30
2023-04-21T05:03:06.101Z,4.10
2023-04-21T05:05:54.653Z,3.90
2023-04-21T05:08:43.031Z,4.30
2023-04-21T05:11:31.517Z,4.07
2023-04-21T05:14:20.174Z,4.37
2023-04-21T05:17:09.075Z,3.80
2023-04-21T05:19:58.852Z,4.80
2023-04-21T05:22:47.267Z,3.70
2023-04-21T05:25:35.853Z,4.80
2023-04-21T05:28:24.294Z,4.17
2023-04-21T05:31:12.675Z,4.03
2023-04-21T05:34:01.066Z,4.83
2023-04-21T05:36:52.312Z,4.43
2023-04-21T05:39:40.797Z,4.70
2023-04-21T05:42:29.166Z,3.80
2023-04-21T05:45:17.748Z,4.30
2023-04-21T05:48:06.985Z,3.80
2023-04-21T05:50:55.487Z,3.53
2023-04-21T05:53:47.551Z,4.20
2023-04-21T05:56:36.059Z,4.10
2023-04-21T05:59:26.409Z,4.60
2023-04-21T06:02:14.906Z,3.63
2023-04-21T06:05:03.859Z,3.50
2023-04-21T06:07:52.445Z,3.90
2023-04-21T06:10:42.706Z,4.30
2023-04-21T06:13:31.064Z,4.40
2023-04-21T06:16:19.506Z,4.70
2023-04-21T06:19:07.958Z,4.03
2023-04-21T06:21:57.789Z,4.03
2023-04-21T06:24:46.210Z,4.40
2023-04-21T06:27:36.067Z,4.83
2023-04-21T06:30:24.950Z,4.27
2023-04-21T06:33:13.405Z,4.47
2023-04-21T06:36:01.863Z,4.20
2023-04-21T06:38:50.392Z,5.50
2023-04-21T06:41:38.899Z,4.63
2023-04-21T06:44:29.236Z,5.07
2023-04-21T06:47:17.864Z,4.57
2023-04-21T06:50:07.531Z,4.60
2023-04-21T06:52:56.021Z,4.70
2023-04-21T06:55:44.433Z,4.83
2023-04-21T06:58:32.866Z,4.83
2023-04-21T07:01:24.369Z,5.63
2023-04-21T07:04:12.998Z,4.90
2023-04-21T07:07:03.094Z,5.23
2023-04-21T07:09:51.832Z,4.30
2023-04-21T07:12:40.247Z,5.57
2023-04-21T07:15:28.766Z,5.20
2023-04-21T07:18:18.685Z,4.20
2023-04-21T07:21:07.262Z,4.43
2023-04-21T07:23:55.656Z,4.63
2023-04-21T07:26:44.120Z,4.73
2023-04-21T07:29:32.589Z,4.63
2023-04-21T07:32:21.198Z,5.10
2023-04-21T07:35:11.403Z,4.87
2023-04-21T07:37:59.868Z,4.40
2023-04-21T07:40:48.282Z,5.10
2023-04-21T07:43:36.819Z,5.60
2023-04-21T07:46:30.306Z,4.13
2023-04-21T07:49:18.893Z,5.00
2023-04-21T07:52:08.805Z,4.63
2023-04-21T07:54:57.411Z,5.03
2023-04-21T07:57:45.881Z,3.93
2023-04-21T08:00:34.569Z,4.67
2023-04-21T08:03:24.457Z,4.07
2023-04-21T08:06:13.344Z,3.30
2023-04-21T08:09:03.530Z,4.20
2023-04-21T08:11:52.065Z,4.13
2023-04-21T08:14:40.996Z,4.40
2023-04-21T08:17:29.502Z,3.50
2023-04-21T08:20:18.039Z,4.17
2023-04-21T08:23:06.562Z,3.30
2023-04-21T08:25:56.455Z,3.40
2023-04-21T08:28:44.891Z,3.80
2023-04-21T08:31:33.905Z,3.67
2023-04-21T08:34:24.192Z,4.00
2023-04-21T08:37:14.237Z,3.43
2023-04-21T08:40:02.666Z,4.60
2023-04-21T08:42:52.456Z,3.83
2023-04-21T08:45:41.315Z,4.03
2023-04-21T08:48:31.055Z,3.80
2023-04-21T08:51:24.389Z,3.40
2023-04-21T08:54:13.404Z,3.83
2023-04-21T08:57:14.164Z,3.30
2023-04-21T09:00:07.918Z,3.30
2023-04-21T09:03:01.155Z,3.87
2023-04-21T09:05:59.108Z,3.20
2023-04-21T09:08:56.751Z,3.23
2023-04-21T09:12:03.533Z,3.47
2023-04-21T09:14:52.423Z,3.33
2023-04-21T09:17:42.274Z,2.80
2023-04-21T09:20:31.394Z,3.43
2023-04-21T09:23:19.883Z,3.80
2023-04-21T09:26:08.485Z,2.83
2023-04-21T09:28:56.885Z,3.60
2023-04-21T09:31:45.886Z,3.10
2023-04-21T09:34:42.752Z,2.80
2023-04-21T09:37:33.822Z,3.43
2023-04-21T09:40:22.275Z,3.80
2023-04-21T09:43:11.864Z,3.00
2023-04-21T09:46:01.693Z,3.07
2023-04-21T09:48:50.145Z,3.20
2023-04-21T09:52:09.706Z,2.80
2023-04-21T09:54:52.095Z,2.73
2023-04-21T09:57:43.000Z,3.07
2023-04-21T10:00:31.435Z,2.50
2023-04-21T10:03:21.569Z,3.00
2023-04-21T10:06:10.378Z,2.90
2023-04-21T10:09:00.459Z,2.83
2023-04-21T10:11:48.928Z,2.67
2023-04-21T10:14:37.436Z,2.50
2023-04-21T10:17:27.409Z,2.93
2023-04-21T10:20:16.776Z,2.33
2023-04-21T10:23:05.287Z,2.63
2023-04-21T10:25:55.391Z,2.67
2023-04-21T10:28:46.670Z,3.00
2023-04-21T10:32:00.405Z,2.60
2023-04-21T10:34:49.107Z,2.80
2023-04-21T10:37:37.816Z,3.10
2023-04-21T10:43:49.605Z,2.63
2023-04-21T10:46:39.728Z,2.40
2023-04-21T10:49:30.329Z,2.50
2023-04-21T10:52:20.979Z,2.07
2023-04-21T10:55:12.740Z,2.70
2023-04-21T10:58:03.697Z,2.70
2023-04-21T11:00:56.515Z,2.60
2023-04-21T11:03:45.162Z,1.93
2023-04-21T11:06:33.808Z,2.07
2023-04-21T11:09:22.233Z,2.23
2023-04-21T11:12:11.710Z,2.20
2023-04-21T11:15:00.238Z,2.63
2023-04-21T11:17:51.298Z,2.50
2023-04-21T11:20:41.614Z,2.40
2023-04-21T11:23:30.206Z,2.10
2023-04-21T11:26:19.306Z,2.03
2023-04-21T11:29:09.297Z,2.00
2023-04-21T11:31:59.099Z,1.90
2023-04-21T11:34:48.975Z,2.00
2023-04-21T11:37:37.904Z,1.60
2023-04-21T11:40:26.301Z,1.70
2023-04-21T11:43:14.785Z,1.90
2023-04-21T11:46:13.994Z,1.60
2023-04-21T11:49:04.450Z,1.60
2023-04-21T11:51:54.259Z,1.63
2023-04-21T11:54:45.651Z,1.63
2023-04-21T11:57:35.166Z,1.73
2023-04-21T12:00:23.635Z,1.60
2023-04-21T12:03:12.617Z,1.73
2023-04-21T12:06:01.212Z,1.73
2023-04-21T12:08:55.682Z,1.60
2023-04-21T12:11:44.203Z,1.50
2023-04-21T12:14:34.704Z,1.40
2023-04-21T12:17:23.233Z,1.40
2023-04-21T12:20:12.855Z,1.53
2023-04-21T12:23:01.299Z,1.40
2023-04-21T12:25:51.532Z,1.37
2023-04-21T12:28:40.275Z,1.30
2023-04-21T12:31:28.889Z,1.37
2023-04-21T12:34:17.388Z,1.47
2023-04-21T12:37:06.163Z,1.50
2023-04-21T12:39:54.606Z,1.60
2023-04-21T12:42:44.424Z,1.80
2023-04-21T12:45:33.159Z,1.50
2023-04-21T12:48:21.713Z,1.40
2023-04-21T12:51:10.730Z,1.40
2023-04-21T12:53:59.142Z,1.40
2023-04-21T12:56:47.574Z,1.57
2023-04-21T12:59:37.308Z,1.17
2023-04-21T13:02:26.119Z,1.20
2023-04-21T13:05:15.112Z,1.40
2023-04-21T13:08:03.512Z,1.30
2023-04-21T13:10:53.405Z,1.30
2023-04-21T13:13:44.649Z,1.23
2023-04-21T13:16:34.479Z,1.27
2023-04-21T13:19:23.011Z,1.23
2023-04-21T13:22:11.458Z,1.50
2023-04-21T13:24:59.881Z,1.20
2023-04-21T13:27:48.350Z,1.20
2023-04-21T13:30:36.984Z,1.30
2023-04-21T13:33:26.963Z,1.40
2023-04-21T13:36:15.558Z,1.17
2023-04-21T13:39:04.687Z,1.13
2023-04-21T13:41:54.364Z,1.17
2023-04-21T13:44:43.001Z,1.20
2023-04-21T13:47:34.487Z,1.67
2023-04-21T13:50:24.372Z,1.10
2023-04-21T13:53:14.104Z,1.43
2023-04-21T13:56:02.596Z,1.13
2023-04-21T13:58:51.100Z,1.10
2023-04-21T14:01:39.555Z,1.30
2023-04-21T14:04:28.210Z,1.30
2023-04-21T14:07:19.522Z,1.03
2023-04-21T14:10:09.120Z,1.00
2023-04-21T14:12:57.560Z,1.40
2023-04-21T14:15:46.089Z,1.20
2023-04-21T14:18:34.587Z,1.30
2023-04-21T14:21:23.015Z,1.30
2023-04-21T14:24:12.870Z,1.20
2023-04-21T14:27:01.296Z,1.20
2023-04-21T14:29:49.760Z,1.17
2023-04-21T14:32:38.626Z,1.10
2023-04-21T14:35:27.323Z,1.30
2023-04-21T14:38:15.751Z,1.07
2023-04-21T14:41:05.926Z,1.27
2023-04-21T14:43:56.596Z,1.27
2023-04-21T14:46:53.324Z,1.10
2023-04-21T14:49:54.676Z,1.00
2023-04-21T14:52:43.899Z,1.07
2023-04-21T14:55:32.309Z,1.40
2023-04-21T14:58:22.166Z,1.10
2023-04-21T15:01:11.327Z,1.07
2023-04-21T15:04:00.672Z,1.10
2023-04-21T15:06:49.451Z,1.10
2023-04-21T15:09:39.083Z,1.17
2023-04-21T15:12:27.561Z,1.10
2023-04-21T15:15:17.403Z,1.20
2023-04-21T15:18:05.914Z,1.10
2023-04-21T15:20:54.354Z,1.20
2023-04-21T15:23:42.878Z,0.97
2023-04-21T15:26:31.426Z,1.13
2023-04-21T15:29:19.838Z,1.00
2023-04-21T15:32:09.702Z,1.13
2023-04-21T15:34:58.100Z,1.20
2023-04-21T15:37:46.537Z,1.00
2023-04-21T15:40:37.518Z,1.00
2023-04-21T15:43:30.209Z,1.03
2023-04-21T15:46:18.709Z,1.20
2023-04-21T15:49:08.520Z,1.10
2023-04-21T15:51:57.240Z,1.10
2023-04-21T15:54:47.100Z,0.90
2023-04-21T15:57:35.552Z,1.20
2023-04-21T16:00:24.630Z,1.00
2023-04-21T16:03:13.292Z,1.20
2023-04-21T16:06:03.523Z,1.13
2023-04-21T16:08:52.371Z,1.00
2023-04-21T16:11:40.955Z,1.10
2023-04-21T16:14:39.326Z,1.10
2023-04-21T16:17:36.593Z,1.00
2023-04-21T16:20:25.887Z,1.07
2023-04-21T16:23:16.534Z,1.07
2023-04-21T16:26:05.962Z,1.10
2023-04-21T16:28:55.553Z,1.00
2023-04-21T16:31:44.017Z,1.10
2023-04-21T16:34:32.567Z,1.27
2023-04-21T16:37:20.948Z,1.00
2023-04-21T16:40:11.979Z,1.10
2023-04-21T16:43:00.550Z,1.10
2023-04-21T16:45:49.177Z,1.20
2023-04-21T16:48:37.846Z,1.20
2023-04-21T16:51:28.503Z,1.10
2023-04-21T16:54:17.045Z,1.20
2023-04-21T16:57:07.111Z,1.17
2023-04-21T16:59:55.634Z,1.00
2023-04-21T17:02:44.294Z,0.90
2023-04-21T17:05:32.815Z,1.10
2023-04-21T17:08:21.302Z,1.20
2023-04-21T17:11:09.693Z,1.10
2023-04-21T17:13:59.580Z,1.10
2023-04-21T17:16:48.168Z,1.10
2023-04-21T17:19:36.841Z,1.10
2023-04-21T17:22:25.244Z,1.00
2023-04-21T17:25:13.769Z,1.23
2023-04-21T17:28:02.430Z,1.00
2023-04-21T17:31:00.240Z,1.10
2023-04-21T17:33:57.247Z,1.10
2023-04-21T17:36:45.748Z,1.03
2023-04-21T17:39:34.120Z,1.30
2023-04-21T17:42:22.739Z,1.17
2023-04-21T17:45:12.029Z,1.30
2023-04-21T17:48:01.913Z,1.30
2023-04-21T17:50:50.486Z,1.20
2023-04-21T17:53:39.180Z,1.17
2023-04-21T17:56:27.823Z,1.30
2023-04-21T17:59:16.448Z,1.20
2023-04-21T18:02:05.337Z,1.20
2023-04-21T18:04:55.425Z,1.27
2023-04-21T18:07:43.906Z,1.20
2023-04-21T18:10:32.426Z,1.47
2023-04-21T18:13:21.012Z,1.20
2023-04-21T18:16:09.642Z,1.30
2023-04-21T18:18:58.080Z,1.13
2023-04-21T18:21:47.976Z,1.30
2023-04-21T18:24:36.722Z,1.20
2023-04-21T18:27:25.361Z,1.20
2023-04-21T18:30:14.132Z,1.23
2023-04-21T18:33:02.709Z,1.20
2023-04-21T18:35:51.332Z,1.30
2023-04-21T18:38:41.166Z,1.40
2023-04-21T18:41:29.764Z,1.27
2023-04-21T18:44:18.262Z,1.40
2023-04-21T18:47:06.751Z,1.07
2023-04-21T18:49:55.421Z,1.10
2023-04-21T18:52:43.908Z,1.30
2023-04-21T18:55:33.914Z,1.60
2023-04-21T18:58:22.623Z,1.33
2023-04-21T19:01:11.296Z,1.30
2023-04-21T19:04:00.023Z,1.20
2023-04-21T19:06:49.482Z,1.50
2023-04-21T19:09:37.940Z,1.40
2023-04-21T19:12:28.874Z,1.60
2023-04-21T19:15:17.355Z,1.23
2023-04-21T19:18:06.553Z,1.30
2023-04-21T19:20:55.140Z,1.23
2023-04-21T19:23:43.533Z,1.40
2023-04-21T19:26:31.998Z,1.40
2023-04-21T19:29:21.770Z,1.30
2023-04-21T19:32:10.188Z,1.30
2023-04-21T19:34:58.622Z,1.30
2023-04-21T19:37:47.126Z,1.80
2023-04-21T19:40:35.521Z,1.50
2023-04-21T19:43:24.069Z,1.27
2023-04-21T19:46:14.051Z,1.40
2023-04-21T19:49:02.684Z,1.30
2023-04-21T19:51:51.732Z,1.50
2023-04-21T19:54:40.451Z,1.20
2023-04-21T19:57:29.024Z,1.50
2023-04-21T20:00:18.217Z,1.33
2023-04-21T20:03:08.952Z,1.23
2023-04-21T20:05:57.610Z,1.40
2023-04-21T20:08:46.171Z,1.40
2023-04-21T20:11:34.806Z,1.40
2023-04-21T20:14:23.356Z,1.30
2023-04-21T20:17:11.737Z,1.50
2023-04-21T20:20:02.026Z,1.30
2023-04-21T20:22:50.494Z,1.23
2023-04-21T20:25:39.164Z,1.60
2023-04-21T20:28:28.257Z,1.30
2023-04-21T20:31:18.010Z,1.50
2023-04-21T20:34:06.768Z,1.47
2023-04-21T20:36:56.931Z,1.30
2023-04-21T20:39:46.760Z,1.83
2023-04-21T20:42:35.201Z,1.33
2023-04-21T20:45:23.823Z,1.60
2023-04-21T20:48:12.265Z,1.70
2023-04-21T20:51:01.150Z,1.50
2023-04-21T20:53:50.945Z,1.60
2023-04-21T20:56:39.628Z,1.43
2023-04-21T20:59:28.068Z,1.27
2023-04-21T21:02:16.593Z,2.00
2023-04-21T21:05:05.422Z,1.60
2023-04-21T21:07:54.123Z,1.70
2023-04-21T21:10:43.870Z,1.90
2023-04-21T21:13:32.491Z,1.40
2023-04-21T21:16:21.008Z,1.50
2023-04-21T21:19:10.023Z,1.50
2023-04-21T21:21:58.423Z,1.37
2023-04-21T21:24:46.825Z,1.40
2023-04-21T21:27:36.626Z,1.60
2023-04-21T21:30:25.050Z,1.50
2023-04-21T21:33:13.526Z,1.80
2023-04-21T21:36:01.968Z,1.53
2023-04-21T21:38:50.397Z,1.47
2023-04-21T21:41:39.753Z,1.57
2023-04-21T21:44:29.580Z,1.63
2023-04-21T21:47:18.223Z,1.60
2023-04-21T21:50:07.710Z,1.50
2023-04-21T21:52:56.148Z,1.30
2023-04-21T21:55:44.615Z,1.60
2023-04-21T21:58:33.100Z,1.40
2023-04-21T22:01:23.100Z,1.37
2023-04-21T22:04:11.679Z,1.60
2023-04-21T22:07:00.179Z,1.73
2023-04-21T22:09:48.613Z,1.50
2023-04-21T22:12:37.199Z,1.50
2023-04-21T22:15:25.586Z,1.60
2023-04-21T22:18:18.372Z,1.40
2023-04-21T22:21:06.935Z,1.43
2023-04-21T22:23:55.445Z,1.73
2023-04-21T22:26:44.142Z,1.33
2023-04-21T22:29:32.560Z,1.53
2023-04-21T22:32:20.981Z,1.40
2023-04-21T22:35:10.974Z,1.97
2023-04-21T22:37:59.356Z,1.80
2023-04-21T22:40:48.061Z,1.83
2023-04-21T22:43:36.476Z,1.70
2023-04-21T22:46:25.026Z,1.63
2023-04-21T22:49:14.284Z,1.60
2023-04-21T22:52:04.078Z,1.50
2023-04-21T22:54:52.435Z,1.60
2023-04-21T22:57:40.939Z,1.73
2023-04-21T23:00:29.323Z,1.50
2023-04-21T23:03:18.022Z,1.70
2023-04-21T23:06:06.970Z,1.53
2023-04-21T23:08:56.703Z,1.90
2023-04-21T23:11:45.102Z,1.30
2023-04-21T23:14:33.462Z,1.63
2023-04-21T23:17:22.168Z,1.80
2023-04-21T23:20:11.599Z,1.80
2023-04-21T23:22:59.994Z,1.43
2023-04-21T23:25:49.777Z,1.93
2023-04-21T23:28:38.278Z,1.30
2023-04-21T23:31:26.994Z,1.57
2023-04-21T23:34:15.792Z,1.77
2023-04-21T23:37:04.159Z,1.50
2023-04-21T23:39:52.528Z,1.70
2023-04-21T23:42:42.312Z,1.60
2023-04-21T23:45:36.055Z,1.63
2023-04-21T23:48:24.482Z,1.90
2023-04-21T23:51:13.018Z,1.70
2023-04-21T23:54:01.698Z,1.60
2023-04-21T23:56:50.080Z,1.60
2023-04-21T23:59:40.176Z,1.70
